Rutledge, Pennsylvania
Current Conditions -  °F | °C
As of 7:54 PM on Friday 24 Oct 2014 (Local Time) from KPHL Reporting Station
Broken Clouds Broken Clouds  
Wind Chill: 62°   Ceiling: 25000
Heat Index: 62°   Visibility: 10mi
Dew Point: 41°   Wind: 9mph
Humidity: 46%   Direction: 260°W
Pressure: 29.86"   Gusts: NA
Location:  39.9064°N, 75.3241°W
Report Text: KPHL 242354Z 26008KT 10SM BKN250 17/05 A2986 RMK AO2 SLP109 T01670050 10211 20167 53015
Loading
Personal Weather Stations






























Interactive Weather Map
Tropical Storm Tracking
New forecast layout! Learn more

10-Day Weather Forecast

Advertisements
Track Severe Weather on mobile